• Join FlightAware (Why Join?)
  • Login
  • US Flag 
10:12PM EDT


 

Airport Tracker/Info


-or-


 

Live Flight TrackerFlight Track Log ✈ N8800G ✈ 16-Jun-2013 ✈ KCVG - KEWR

Flight Track Log - Related Links

Times and Time Zones

All times are in EDT time to prevent confusion due to time zone crossing. See the N8800G flight status page for this flight to view local times or setup timezone preferences in your user account.

Time Position Orientation Groundspeed Altitude Reporting Facility
EDT Latitude Longitude Course Direction KTS MPH feet Rate Location/Type
08:11PM 39.0500 -84.6833 North 150 173 1,400  Level Cincinnati TRACON
08:12PM 39.0500 -84.7167 270° West 162 186 2,500 1,680 Climbing Cincinnati TRACON
08:13PM 39.0500 -84.8000 270° West 250 288 4,300 2,100 Climbing Cincinnati TRACON
08:14PM 39.0841 -84.4000 North  Level FlightAware Approximate
08:14PM 39.1000 -84.8500 322° Northwest 283 326 6,700  Level Cincinnati TRACON
08:15PM 39.2068 -84.4000 North  Level FlightAware Approximate
08:15PM 39.1664 -84.7889 36° Northeast 295 339 9,300  Level Indianapolis Center
08:16PM 39.3295 -84.4000 North  Level FlightAware Approximate
08:16PM 39.2369 -84.7275 34° Northeast 300 345 11,000  Level Indianapolis Center
08:17PM 39.3094 -84.6553 38° Northeast 323 372 12,600 1,440 Climbing Indianapolis Center
08:18PM 39.4025 -84.5611 38° Northeast 358 412 14,000 1,260 Climbing Indianapolis Center
08:19PM 39.4833 -84.4781 38° Northeast 366 421 15,300 1,320 Climbing Indianapolis Center
08:20PM 39.5653 -84.3933 39° Northeast 371 427 16,800 1,260 Climbing Indianapolis Center
08:21PM 39.6483 -84.3089 38° Northeast 372 428 17,900 960 Climbing Indianapolis Center
08:22PM 39.7331 -84.2211 39° Northeast 382 440 18,900 1,020 Climbing Indianapolis Center
08:23PM 39.8200 -84.1314 38° Northeast 392 451 20,000 840 Climbing Indianapolis Center
08:24PM 39.9039 -84.0297 43° Northeast 404 465 20,700 660 Climbing Indianapolis Center
08:25PM 39.9892 -83.9250 43° Northeast 414 476 21,400 720 Climbing Indianapolis Center
08:26PM 40.0758 -83.8164 44° Northeast 422 486 22,200 720 Climbing Indianapolis Center
08:27PM 40.1631 -83.7064 44° Northeast 427 491 22,900 660 Climbing Indianapolis Center
08:28PM 40.2519 -83.5947 44° Northeast 434 499 23,600 660 Climbing Indianapolis Center
08:29PM 40.3414 -83.4828 44° Northeast 438 504 24,300 660 Climbing Indianapolis Center
08:30PM 40.4294 -83.3675 45° Northeast 441 507 25,000 540 Climbing Indianapolis Center
08:31PM 40.5197 -83.2522 44° Northeast 446 513 25,500 480 Climbing Indianapolis Center
08:32PM 40.6194 -83.1278 43° Northeast 450 518 26,100 480 Climbing Indianapolis Center
08:33PM 40.7108 -83.0083 45° Northeast 456 525 26,600 480 Climbing Indianapolis Center
08:34PM 40.8044 -82.8883 44° Northeast 464 534 27,100 540 Climbing Indianapolis Center
08:35PM 40.8817 -82.7856 45° Northeast 455 524 27,600 540 Climbing Cleveland Center
08:36PM 40.9736 -82.6678 44° Northeast 455 524 28,100 420 Climbing Cleveland Center
08:37PM 41.0569 -82.5575 45° Northeast 455 524 28,500 420 Climbing Cleveland Center
08:38PM 41.1528 -82.4336 44° Northeast 462 532 29,000 240 Climbing Cleveland Center
08:39PM 41.2464 -82.3092 45° Northeast 470 541 29,000 120 Level Cleveland Center
08:40PM 41.3422 -82.1789 46° Northeast 482 555 29,300 420 Climbing Cleveland Center
08:41PM 41.4072 -82.0006 64° Northeast 482 555 29,900 420 Climbing Cleveland Center
08:42PM 41.4592 -81.8217 69° East 489 563 30,200 420 Climbing Cleveland Center
08:43PM 41.5069 -81.6422 70° East 506 582 30,800 360 Climbing Cleveland Center
08:44PM 41.5583 -81.4656 69° East 506 582 31,000 60 Climbing Cleveland Center
08:45PM 41.6075 -81.2858 70° East 506 582 31,000  Level Cleveland Center
08:46PM 41.6522 -81.1250 70° East 512 589 31,000  Level Cleveland Center
08:47PM 41.7050 -80.9392 69° East 527 606 31,000  Level Cleveland Center
08:48PM 41.7556 -80.7503 70° East 527 606 31,000  Level Cleveland Center
08:49PM 41.7514 -80.5553 92° East 515 593 31,000  Level Cleveland Center
08:50PM 41.7367 -80.3550 96° East 529 609 31,000  Level Cleveland Center
08:51PM 41.7194 -80.1408 96° East 540 621 31,000  Level Cleveland Center
08:52PM 41.7017 -79.9378 97° East 540 621 31,000  Level Cleveland Center
08:53PM 41.6839 -79.7381 97° East 540 621 31,000  Level Cleveland Center
08:54PM 41.6656 -79.5603 98° East 540 621 31,000  Level Cleveland Center
08:55PM 41.6492 -79.3633 96° East 540 621 31,000  Level Cleveland Center
08:56PM 41.6303 -79.1664 97° East 540 621 31,000  Level Cleveland Center
08:57PM 41.6108 -78.9642 97° East 540 621 31,000  Level Cleveland Center
08:58PM 41.5911 -78.7647 97° East 540 621 31,000  Level Cleveland Center
09:00PM 41.5589 -78.4119 97° East 535 616 31,000  Level New York Center
09:01PM 41.5400 -78.2158 97° East 530 610 31,000  Level New York Center
09:02PM 41.5164 -78.0247 99° East 530 610 31,000  Level New York Center
09:03PM 41.4928 -77.8308 99° East 530 610 31,000  Level New York Center
09:04PM 41.4667 -77.6369 100° East 530 610 31,000  Level New York Center
09:05PM 41.4378 -77.4458 101° East 530 610 31,000 -60 Level New York Center
09:06PM 41.4089 -77.2575 101° East 530 610 30,900 -1,020 Descending New York Center
09:07PM 41.3797 -77.0639 101° East 530 610 29,000 -1,920 Descending New York Center
09:08PM 41.3503 -76.8650 101° East 535 616 27,100 -1,980 Descending New York Center
09:09PM 41.3097 -76.6789 106° East 530 610 25,200 -1,980 Descending New York Center
09:10PM 41.2619 -76.5064 110° East 517 595 23,300 -1,860 Descending New York Center
09:11PM 41.2161 -76.3342 109° East 502 578 21,500 -1,680 Descending New York Center
09:12PM 41.1697 -76.1650 110° East 492 566 20,000 -1,320 Descending New York Center
09:13PM 41.1344 -76.0217 108° East 473 544 19,000 -720 Descending New York Center
09:14PM 41.0858 -75.8472 110° East 460 529 18,600 -1,800 Descending New York Center
09:15PM 41.0464 -75.6986 109° East 442 509 15,500 -2,400 Descending New York Center
09:16PM 41.0064 -75.5553 110° East 424 488 13,900 -1,740 Descending New York Center
09:17PM 40.9717 -75.4319 110° East 401 461 12,100 -1,560 Descending New York Center
09:18PM 40.9347 -75.3086 112° Southeast 379 436 10,800 -1,320 Descending New York Center
09:19PM 40.9022 -75.1828 109° East 330 380 9,500 -1,260 Descending New York Center
09:20PM 40.8725 -75.0794 111° Southeast 309 356 8,400 -1,140 Descending New York Center
09:21PM 40.8428 -74.9789 111° Southeast 298 343 7,300 -720 Descending New York Center
09:22PM 40.8233 -74.8817 105° East 298 343 7,000 -180 Descending New York Center
09:23PM 40.8481 -74.7678 74° East 291 335 7,000 -480 Level New York Center
09:24PM 40.8700 -74.6786 72° East 291 335 6,100 -1,020 Descending New York Center
09:25PM 40.9064 -74.5792 64° Northeast 279 321 5,000 -780 Descending New York Center
09:25PM 40.9167 -74.5333 73° East 276 318 5,000  Level New York TRACON
09:26PM 40.9500 -74.4667 56° Northeast 245 282 5,000  Level New York TRACON
09:27PM 40.9833 -74.3833 62° Northeast 240 276 5,000  Level New York TRACON
09:28PM 41.0167 -74.3000 62° Northeast 242 278 5,000  Level New York TRACON
09:29PM 41.0333 -74.2167 75° East 244 281 5,000  Level New York TRACON
09:30PM 41.0000 -74.1333 118° Southeast 258 297 5,000 -600 Level New York TRACON
09:31PM 40.9667 -74.0667 123° Southeast 258 297 3,900 -1,080 Descending New York TRACON
09:32PM 40.9000 -74.0667 180° South 236 272 3,000 -480 Descending New York TRACON
09:33PM 40.8500 -74.0667 180° South 185 213 3,000  Level New York TRACON